createdAt,value
2023-03-01T00:01:57.449Z,3.03
2023-03-01T00:04:24.122Z,2.98
2023-03-01T00:06:50.883Z,3.00
2023-03-01T00:09:18.361Z,3.06
2023-03-01T00:11:46.046Z,3.13
2023-03-01T00:14:13.089Z,3.36
2023-03-01T00:16:42.628Z,3.37
2023-03-01T00:19:16.464Z,3.40
2023-03-01T00:21:43.443Z,3.30
2023-03-01T00:24:11.003Z,3.15
2023-03-01T00:26:38.759Z,3.20
2023-03-01T00:29:05.640Z,3.19
2023-03-01T00:31:33.694Z,3.18
2023-03-01T00:34:04.637Z,3.21
2023-03-01T00:36:35.143Z,3.01
2023-03-01T00:39:02.112Z,3.03
2023-03-01T00:41:28.860Z,3.13
2023-03-01T00:43:55.947Z,3.05
2023-03-01T00:46:26.537Z,3.04
2023-03-01T00:48:53.793Z,3.10
2023-03-01T00:51:23.882Z,3.36
2023-03-01T00:53:59.252Z,3.10
2023-03-01T00:56:26.362Z,3.12
2023-03-01T00:58:53.063Z,3.19
2023-03-01T01:01:22.741Z,3.07
2023-03-01T01:03:53.056Z,3.19
2023-03-01T01:06:23.044Z,3.39
2023-03-01T01:08:50.476Z,3.41
2023-03-01T01:11:17.756Z,3.41
2023-03-01T01:13:47.592Z,3.27
2023-03-01T01:16:15.428Z,3.14
2023-03-01T01:18:42.188Z,3.11
2023-03-01T01:21:12.364Z,3.05
2023-03-01T01:23:40.879Z,3.09
2023-03-01T01:26:13.832Z,2.71
2023-03-01T01:28:40.544Z,2.67
2023-03-01T01:31:07.380Z,2.72
2023-03-01T01:33:34.828Z,2.65
2023-03-01T01:36:01.917Z,2.67
2023-03-01T01:38:28.652Z,2.89
2023-03-01T01:40:55.414Z,2.78
2023-03-01T01:43:25.341Z,2.66
2023-03-01T01:45:56.465Z,2.78
2023-03-01T01:48:28.118Z,2.66
2023-03-01T01:51:00.698Z,2.96
2023-03-01T01:53:27.820Z,3.33
2023-03-01T01:55:59.589Z,3.35
2023-03-01T01:58:29.344Z,3.12
2023-03-01T02:00:56.478Z,3.11
2023-03-01T02:03:31.290Z,2.90
2023-03-01T02:06:05.302Z,2.88
2023-03-01T02:08:36.863Z,3.05
2023-03-01T02:11:03.848Z,3.03
2023-03-01T02:13:32.717Z,2.89
2023-03-01T02:15:59.847Z,2.96
2023-03-01T02:18:27.012Z,3.04
2023-03-01T02:21:08.012Z,3.16
2023-03-01T02:23:35.266Z,3.01
2023-03-01T02:26:22.109Z,2.87
2023-03-01T02:28:48.936Z,3.07
2023-03-01T02:31:19.212Z,3.13
2023-03-01T02:33:47.010Z,2.98
2023-03-01T02:36:20.036Z,3.10
2023-03-01T02:38:49.279Z,3.18
2023-03-01T02:41:18.836Z,3.18
2023-03-01T02:43:45.837Z,3.07
2023-03-01T02:46:23.463Z,3.16
2023-03-01T02:48:53.172Z,2.96
2023-03-01T02:51:35.066Z,2.80
2023-03-01T02:54:23.312Z,2.70
2023-03-01T02:56:50.457Z,2.75
2023-03-01T02:59:24.311Z,2.70
2023-03-01T03:01:51.058Z,3.00
2023-03-01T03:04:20.097Z,3.12
2023-03-01T03:06:48.929Z,2.91
2023-03-01T03:09:17.108Z,2.97
2023-03-01T03:11:46.214Z,2.96
2023-03-01T03:14:16.261Z,3.02
2023-03-01T03:16:45.262Z,3.01
2023-03-01T03:19:12.780Z,3.08
2023-03-01T03:21:42.340Z,2.81
2023-03-01T03:24:09.463Z,2.72
2023-03-01T03:26:36.331Z,2.71
2023-03-01T03:29:03.584Z,2.70
2023-03-01T03:31:30.285Z,3.02
2023-03-01T03:33:57.254Z,2.74
2023-03-01T03:36:25.357Z,2.86
2023-03-01T03:38:52.472Z,3.19
2023-03-01T03:41:19.214Z,3.34
2023-03-01T03:43:46.130Z,3.38
2023-03-01T03:46:13.160Z,3.23
2023-03-01T03:48:42.978Z,3.12
2023-03-01T03:51:15.290Z,3.20
2023-03-01T03:53:43.195Z,3.04
2023-03-01T03:56:12.845Z,3.18
2023-03-01T03:58:39.549Z,3.06
2023-03-01T04:01:06.607Z,2.99
2023-03-01T04:03:34.682Z,3.14
2023-03-01T04:06:02.147Z,3.12
2023-03-01T04:08:29.620Z,3.05
2023-03-01T04:11:04.532Z,3.13
2023-03-01T04:13:31.185Z,3.16
2023-03-01T04:15:57.890Z,3.00
2023-03-01T04:18:25.300Z,2.78
2023-03-01T04:20:53.819Z,3.10
2023-03-01T04:23:21.780Z,3.08
2023-03-01T04:25:53.677Z,2.96
2023-03-01T04:28:36.806Z,3.06
2023-03-01T04:31:09.640Z,2.88
2023-03-01T04:33:36.379Z,2.78
2023-03-01T04:36:03.189Z,2.74
2023-03-01T04:38:30.070Z,2.66
2023-03-01T04:40:56.801Z,2.67
2023-03-01T04:43:23.466Z,3.06
2023-03-01T04:45:50.185Z,2.78
2023-03-01T04:48:16.905Z,3.07
2023-03-01T04:50:43.545Z,3.07
2023-03-01T04:53:10.229Z,3.22
2023-03-01T04:55:36.847Z,3.35
2023-03-01T04:58:03.678Z,3.02
2023-03-01T05:00:30.575Z,2.70
2023-03-01T05:02:59.791Z,2.74
2023-03-01T05:05:27.994Z,2.61
2023-03-01T05:07:56.956Z,2.91
2023-03-01T05:10:24.884Z,3.19
2023-03-01T05:12:52.292Z,3.01
2023-03-01T05:15:19.142Z,2.77
2023-03-01T05:17:45.786Z,2.99
2023-03-01T05:20:12.564Z,2.80
2023-03-01T05:22:39.440Z,2.76
2023-03-01T05:25:06.636Z,2.78
2023-03-01T05:27:33.275Z,2.95
2023-03-01T05:29:59.905Z,2.70
2023-03-01T05:32:26.626Z,2.66
2023-03-01T05:34:53.490Z,2.74
2023-03-01T05:37:20.249Z,2.68
2023-03-01T05:39:47.791Z,2.47
2023-03-01T05:42:15.599Z,2.40
2023-03-01T05:44:42.294Z,2.50
2023-03-01T05:47:08.993Z,2.61
2023-03-01T05:49:36.020Z,2.61
2023-03-01T05:52:03.599Z,2.66
2023-03-01T05:54:30.189Z,2.71
2023-03-01T05:56:57.303Z,2.71
2023-03-01T05:59:26.591Z,3.38
2023-03-01T06:01:53.564Z,3.12
2023-03-01T06:04:20.206Z,2.87
2023-03-01T06:06:47.011Z,2.73
2023-03-01T06:09:13.663Z,3.08
2023-03-01T06:11:40.442Z,3.15
2023-03-01T06:14:07.258Z,3.23
2023-03-01T06:16:33.935Z,2.89
2023-03-01T06:19:00.571Z,3.32
2023-03-01T06:21:27.339Z,3.42
2023-03-01T06:23:54.123Z,3.53
2023-03-01T06:26:20.801Z,3.79
2023-03-01T06:28:47.620Z,3.43
2023-03-01T06:31:14.563Z,3.41
2023-03-01T06:33:41.324Z,3.48
2023-03-01T06:36:09.097Z,3.27
2023-03-01T06:38:35.856Z,3.27
2023-03-01T06:41:02.584Z,3.42
2023-03-01T06:43:29.344Z,3.45
2023-03-01T06:45:56.619Z,3.21
2023-03-01T06:48:23.290Z,3.16
2023-03-01T06:50:50.011Z,3.39
2023-03-01T06:53:16.893Z,3.06
2023-03-01T06:55:43.853Z,2.93
2023-03-01T06:58:10.890Z,3.01
2023-03-01T07:00:37.548Z,3.04
2023-03-01T07:03:04.470Z,3.51
2023-03-01T07:05:31.710Z,3.31
2023-03-01T07:07:58.537Z,3.27
2023-03-01T07:10:25.798Z,3.01
2023-03-01T07:12:55.962Z,3.32
2023-03-01T07:15:22.713Z,2.95
2023-03-01T07:17:49.354Z,3.09
2023-03-01T07:20:16.238Z,2.91
2023-03-01T07:22:42.995Z,3.04
2023-03-01T07:25:10.820Z,3.17
2023-03-01T07:27:37.524Z,2.96
2023-03-01T07:30:04.726Z,3.27
2023-03-01T07:32:31.626Z,3.76
2023-03-01T07:34:58.440Z,3.78
2023-03-01T07:37:25.296Z,3.42
2023-03-01T07:39:51.969Z,3.80
2023-03-01T07:42:18.839Z,3.43
2023-03-01T07:44:45.660Z,3.69
2023-03-01T07:47:12.610Z,3.88
2023-03-01T07:49:39.226Z,4.13
2023-03-01T07:52:05.898Z,4.17
2023-03-01T07:54:32.638Z,4.18
2023-03-01T07:56:59.369Z,4.12
2023-03-01T07:59:26.098Z,4.42
2023-03-01T08:01:52.794Z,4.31
2023-03-01T08:04:19.538Z,4.38
2023-03-01T08:06:46.274Z,4.22
2023-03-01T08:09:12.930Z,4.53
2023-03-01T08:11:39.888Z,4.97
2023-03-01T08:14:07.610Z,4.86
2023-03-01T08:16:34.772Z,4.71
2023-03-01T08:19:09.521Z,4.61
2023-03-01T08:21:36.765Z,4.91
2023-03-01T08:24:05.536Z,5.25
2023-03-01T08:26:33.531Z,5.22
2023-03-01T08:29:01.991Z,5.10
2023-03-01T08:31:41.132Z,4.96
2023-03-01T08:34:12.038Z,5.25
2023-03-01T08:36:41.178Z,5.36
2023-03-01T08:39:09.885Z,5.40
2023-03-01T08:41:37.270Z,5.68
2023-03-01T08:44:04.727Z,5.36
2023-03-01T08:46:40.326Z,5.56
2023-03-01T08:49:17.909Z,5.65
2023-03-01T08:51:46.004Z,5.71
2023-03-01T08:54:15.671Z,6.18
2023-03-01T08:56:43.041Z,5.79
2023-03-01T08:59:11.881Z,5.31
2023-03-01T09:01:38.730Z,5.32
2023-03-01T09:04:05.433Z,4.84
2023-03-01T09:06:34.830Z,5.15
2023-03-01T09:09:02.148Z,5.87
2023-03-01T09:11:29.708Z,6.02
2023-03-01T09:13:56.570Z,6.03
2023-03-01T09:16:24.398Z,6.21
2023-03-01T09:18:53.691Z,6.40
2023-03-01T09:21:37.222Z,6.47
2023-03-01T09:24:07.781Z,6.38
2023-03-01T09:26:34.540Z,6.43
2023-03-01T09:29:01.223Z,6.61
2023-03-01T09:31:27.923Z,6.80
2023-03-01T09:33:55.864Z,6.65
2023-03-01T09:36:25.149Z,6.91
2023-03-01T09:38:52.117Z,6.79
2023-03-01T09:41:18.702Z,6.29
2023-03-01T09:43:55.346Z,6.74
2023-03-01T09:46:25.722Z,6.98
2023-03-01T09:48:59.863Z,7.38
2023-03-01T09:51:35.605Z,7.10
2023-03-01T09:54:05.238Z,7.29
2023-03-01T09:56:53.306Z,7.49
2023-03-01T09:59:38.061Z,7.36
2023-03-01T10:02:39.721Z,7.48
2023-03-01T10:05:16.383Z,7.79
2023-03-01T10:08:04.736Z,7.66
2023-03-01T10:10:41.111Z,7.79
2023-03-01T10:13:24.409Z,7.99
2023-03-01T10:16:13.522Z,8.07
2023-03-01T10:18:41.230Z,8.30
2023-03-01T10:21:14.825Z,8.19
2023-03-01T10:23:41.482Z,8.05
2023-03-01T10:26:31.536Z,8.34
2023-03-01T10:29:05.672Z,8.18
2023-03-01T10:31:50.918Z,8.18
2023-03-01T10:34:28.088Z,8.33
2023-03-01T10:36:58.550Z,8.69
2023-03-01T10:39:26.724Z,8.41
2023-03-01T10:42:00.743Z,7.79
2023-03-01T10:44:44.930Z,8.11
2023-03-01T10:47:19.657Z,8.40
2023-03-01T10:50:19.946Z,8.31
2023-03-01T10:53:01.101Z,8.63
2023-03-01T10:55:29.266Z,9.03
2023-03-01T10:58:08.100Z,9.00
2023-03-01T11:00:57.045Z,9.28
2023-03-01T11:03:27.099Z,9.27
2023-03-01T11:05:56.413Z,9.43
2023-03-01T11:08:46.825Z,9.58
2023-03-01T11:11:21.308Z,9.61
2023-03-01T11:13:57.157Z,9.60
2023-03-01T11:16:33.574Z,9.65
2023-03-01T11:19:21.649Z,9.84
2023-03-01T11:22:15.413Z,10.00
2023-03-01T11:24:47.314Z,10.19
2023-03-01T11:27:26.148Z,10.16
2023-03-01T11:30:04.419Z,9.98
2023-03-01T11:32:58.687Z,10.11
2023-03-01T11:35:27.818Z,10.32
2023-03-01T11:38:12.675Z,10.06
2023-03-01T11:41:17.322Z,10.23
2023-03-01T11:44:06.589Z,10.13
2023-03-01T11:46:33.341Z,9.81
2023-03-01T11:49:28.121Z,10.03
2023-03-01T11:52:10.057Z,9.65
2023-03-01T11:54:56.257Z,9.66
2023-03-01T11:57:46.109Z,9.94
2023-03-01T12:00:37.673Z,10.02
2023-03-01T12:03:32.013Z,10.14
2023-03-01T12:06:33.927Z,9.73
2023-03-01T12:09:12.475Z,9.44
2023-03-01T12:11:45.555Z,9.63
2023-03-01T12:14:21.012Z,9.99
2023-03-01T12:17:09.151Z,9.85
2023-03-01T12:20:02.164Z,9.97
2023-03-01T12:22:53.916Z,10.11
2023-03-01T12:25:40.809Z,10.37
2023-03-01T12:28:10.293Z,10.55
2023-03-01T12:31:02.946Z,10.10
2023-03-01T12:34:05.601Z,10.48
2023-03-01T12:36:56.312Z,10.34
2023-03-01T12:40:00.820Z,9.63
2023-03-01T12:42:33.151Z,9.96
2023-03-01T12:45:24.246Z,10.54
2023-03-01T12:48:03.617Z,10.23
2023-03-01T12:50:48.680Z,10.50
2023-03-01T12:53:25.897Z,10.69
2023-03-01T12:56:16.748Z,11.20
2023-03-01T12:58:50.142Z,10.48
2023-03-01T13:01:36.366Z,10.91
2023-03-01T13:04:24.914Z,11.22
2023-03-01T13:06:59.690Z,10.95
2023-03-01T13:09:29.429Z,11.47
2023-03-01T13:11:58.240Z,11.53
2023-03-01T13:14:24.892Z,11.65
2023-03-01T13:16:53.610Z,11.80
2023-03-01T13:19:23.492Z,10.95
2023-03-01T13:21:53.050Z,11.37
2023-03-01T13:24:40.197Z,11.54
2023-03-01T13:27:06.914Z,11.48
2023-03-01T13:29:54.742Z,12.00
2023-03-01T13:32:43.050Z,11.83
2023-03-01T13:35:16.720Z,11.99
2023-03-01T13:37:46.539Z,11.46
2023-03-01T13:40:19.249Z,11.53
2023-03-01T13:42:59.322Z,11.68
2023-03-01T13:45:44.330Z,11.97
2023-03-01T13:48:18.673Z,12.15
2023-03-01T13:50:54.101Z,12.64
2023-03-01T13:53:25.803Z,12.44
2023-03-01T13:55:59.510Z,12.54
2023-03-01T13:58:31.574Z,12.37
2023-03-01T14:01:08.776Z,12.13
2023-03-01T14:03:42.289Z,12.23
2023-03-01T14:06:15.854Z,11.76
2023-03-01T14:08:45.870Z,11.97
2023-03-01T14:11:30.993Z,11.94
2023-03-01T14:14:36.304Z,11.82
2023-03-01T14:17:17.271Z,11.68
2023-03-01T14:19:55.440Z,11.75
2023-03-01T14:22:30.838Z,12.41
2023-03-01T14:25:03.805Z,12.21
2023-03-01T14:27:39.590Z,11.73
2023-03-01T14:30:18.833Z,12.03
2023-03-01T14:32:57.196Z,12.27
2023-03-01T14:35:30.013Z,12.39
2023-03-01T14:37:56.742Z,12.49
2023-03-01T14:40:33.144Z,12.54
2023-03-01T14:43:03.870Z,12.31
2023-03-01T14:45:31.663Z,12.15
2023-03-01T14:48:04.282Z,12.21
2023-03-01T14:50:36.658Z,11.77
2023-03-01T14:53:06.226Z,12.23
2023-03-01T14:55:40.181Z,12.31
2023-03-01T14:58:12.092Z,12.19
2023-03-01T15:00:40.725Z,11.97
2023-03-01T15:03:21.667Z,12.26
2023-03-01T15:05:48.607Z,11.69
2023-03-01T15:08:21.898Z,11.38
2023-03-01T15:11:03.849Z,11.53
2023-03-01T15:13:35.914Z,11.51
2023-03-01T15:16:09.258Z,11.06
2023-03-01T15:18:37.698Z,11.56
2023-03-01T15:21:28.835Z,11.98
2023-03-01T15:23:57.348Z,11.98
2023-03-01T15:26:40.920Z,11.63
2023-03-01T15:29:18.965Z,11.93
2023-03-01T15:32:02.629Z,12.00
2023-03-01T15:34:35.192Z,11.81
2023-03-01T15:37:04.505Z,11.63
2023-03-01T15:39:34.961Z,10.95
2023-03-01T15:42:01.660Z,11.16
2023-03-01T15:44:41.597Z,10.85
2023-03-01T15:47:32.823Z,11.27
2023-03-01T15:50:01.469Z,11.13
2023-03-01T15:52:37.032Z,11.32
2023-03-01T15:55:07.537Z,11.12
2023-03-01T15:57:34.170Z,11.27
2023-03-01T16:00:01.006Z,11.13
2023-03-01T16:02:27.848Z,10.80
2023-03-01T16:04:55.749Z,11.01
2023-03-01T16:07:22.492Z,10.71
2023-03-01T16:09:49.233Z,10.62
2023-03-01T16:12:17.824Z,10.54
2023-03-01T16:14:44.807Z,10.52
2023-03-01T16:17:11.662Z,10.37
2023-03-01T16:19:39.602Z,10.25
2023-03-01T16:22:06.334Z,10.05
2023-03-01T16:24:33.092Z,9.96
2023-03-01T16:26:59.745Z,9.93
2023-03-01T16:29:26.415Z,9.80
2023-03-01T16:31:53.314Z,9.80
2023-03-01T16:34:20.094Z,9.46
2023-03-01T16:36:49.097Z,9.42
2023-03-01T16:39:16.794Z,9.13
2023-03-01T16:41:43.670Z,9.02
2023-03-01T16:44:10.420Z,8.93
2023-03-01T16:46:37.294Z,8.81
2023-03-01T16:49:03.973Z,8.73
2023-03-01T16:51:30.954Z,8.60
2023-03-01T16:53:58.979Z,8.52
2023-03-01T16:56:25.887Z,8.34
2023-03-01T16:58:52.609Z,8.33
2023-03-01T17:01:21.374Z,8.35
2023-03-01T17:03:48.355Z,8.27
2023-03-01T17:06:19.443Z,8.20
2023-03-01T17:08:46.125Z,8.16
2023-03-01T17:11:18.403Z,8.09
2023-03-01T17:13:45.505Z,8.07
2023-03-01T17:16:15.745Z,8.20
2023-03-01T17:18:43.100Z,8.04
2023-03-01T17:21:10.871Z,7.94
2023-03-01T17:23:39.379Z,7.92
2023-03-01T17:26:07.168Z,7.80
2023-03-01T17:28:38.540Z,7.88
2023-03-01T17:31:07.315Z,7.69
2023-03-01T17:33:34.188Z,7.64
2023-03-01T17:36:01.420Z,7.72
2023-03-01T17:38:28.177Z,7.67
2023-03-01T17:40:57.480Z,7.63
2023-03-01T17:43:24.189Z,7.59
2023-03-01T17:45:50.989Z,7.52
2023-03-01T17:48:18.205Z,7.45
2023-03-01T17:50:45.440Z,7.45
2023-03-01T17:53:13.339Z,7.27
2023-03-01T17:55:41.794Z,7.10
2023-03-01T17:58:10.485Z,7.05
2023-03-01T18:00:37.373Z,7.15
2023-03-01T18:03:04.812Z,7.09
2023-03-01T18:05:36.414Z,7.00
2023-03-01T18:08:03.693Z,6.92
2023-03-01T18:10:32.510Z,6.95
2023-03-01T18:12:59.256Z,6.86
2023-03-01T18:15:28.977Z,6.77
2023-03-01T18:17:55.873Z,6.72
2023-03-01T18:20:22.813Z,6.63
2023-03-01T18:22:49.473Z,6.60
2023-03-01T18:25:16.186Z,6.49
2023-03-01T18:27:42.999Z,6.41
2023-03-01T18:30:10.410Z,6.39
2023-03-01T18:32:37.331Z,6.41
2023-03-01T18:35:04.315Z,6.54
2023-03-01T18:37:30.921Z,6.45
2023-03-01T18:39:57.684Z,6.45
2023-03-01T18:42:24.647Z,6.42
2023-03-01T18:44:51.254Z,6.38
2023-03-01T18:47:17.864Z,6.31
2023-03-01T18:49:44.768Z,6.27
2023-03-01T18:52:11.772Z,6.27
2023-03-01T18:54:38.678Z,6.16
2023-03-01T18:57:05.348Z,6.01
2023-03-01T18:59:32.715Z,5.96
2023-03-01T19:01:59.513Z,5.94
2023-03-01T19:04:26.244Z,5.95
2023-03-01T19:06:52.889Z,5.80
2023-03-01T19:09:19.528Z,5.84
2023-03-01T19:11:46.271Z,5.82
2023-03-01T19:14:13.110Z,5.81
2023-03-01T19:16:39.803Z,5.81
2023-03-01T19:19:06.972Z,5.74
2023-03-01T19:21:34.175Z,5.77
2023-03-01T19:24:01.658Z,5.58
2023-03-01T19:26:28.712Z,5.65
2023-03-01T19:28:55.928Z,5.57
2023-03-01T19:31:26.073Z,5.43
2023-03-01T19:33:59.532Z,5.39
2023-03-01T19:36:32.591Z,5.19
2023-03-01T19:39:02.028Z,5.16
2023-03-01T19:41:29.569Z,5.23
2023-03-01T19:43:56.677Z,5.07
2023-03-01T19:46:24.161Z,5.13
2023-03-01T19:48:53.066Z,5.04
2023-03-01T19:51:20.067Z,4.91
2023-03-01T19:53:46.750Z,4.94
2023-03-01T19:56:13.540Z,4.89
2023-03-01T19:58:40.208Z,4.91
2023-03-01T20:01:15.604Z,4.96
2023-03-01T20:03:42.498Z,4.74
2023-03-01T20:06:15.204Z,4.61
2023-03-01T20:08:42.452Z,4.73
2023-03-01T20:11:11.386Z,4.74
2023-03-01T20:13:38.345Z,4.68
2023-03-01T20:16:06.225Z,4.76
2023-03-01T20:18:33.684Z,4.82
2023-03-01T20:21:00.471Z,4.87
2023-03-01T20:23:27.991Z,4.76
2023-03-01T20:26:11.856Z,4.84
2023-03-01T20:28:38.748Z,4.81
2023-03-01T20:31:07.933Z,4.82
2023-03-01T20:33:34.678Z,4.83
2023-03-01T20:36:01.818Z,4.63
2023-03-01T20:38:28.621Z,4.65
2023-03-01T20:41:05.182Z,4.77
2023-03-01T20:43:33.012Z,4.74
2023-03-01T20:46:03.756Z,4.66
2023-03-01T20:48:30.647Z,4.56
2023-03-01T20:50:57.245Z,4.55
2023-03-01T20:53:23.930Z,4.41
2023-03-01T20:55:50.563Z,4.34
2023-03-01T20:58:17.223Z,4.09
2023-03-01T21:00:43.942Z,3.92
2023-03-01T21:03:10.667Z,4.01
2023-03-01T21:05:37.261Z,4.05
2023-03-01T21:08:04.165Z,4.15
2023-03-01T21:10:31.119Z,3.88
2023-03-01T21:12:57.794Z,4.06
2023-03-01T21:15:29.449Z,3.81
2023-03-01T21:17:56.600Z,3.48
2023-03-01T21:20:23.945Z,3.61
2023-03-01T21:22:50.575Z,3.54
2023-03-01T21:25:17.562Z,3.60
2023-03-01T21:27:44.269Z,3.70
2023-03-01T21:30:11.669Z,3.59
2023-03-01T21:32:38.419Z,3.44
2023-03-01T21:35:05.698Z,3.33
2023-03-01T21:37:32.427Z,3.54
2023-03-01T21:39:59.070Z,3.64
2023-03-01T21:42:25.712Z,3.49
2023-03-01T21:44:52.401Z,3.56
2023-03-01T21:47:19.004Z,3.51
2023-03-01T21:49:45.963Z,3.54
2023-03-01T21:52:12.889Z,3.23
2023-03-01T21:54:39.521Z,3.24
2023-03-01T21:57:06.216Z,3.26
2023-03-01T21:59:33.045Z,3.33
2023-03-01T22:01:59.692Z,3.30
2023-03-01T22:04:26.625Z,3.24
2023-03-01T22:06:53.432Z,3.04
2023-03-01T22:09:23.906Z,3.04
2023-03-01T22:11:53.643Z,2.90
2023-03-01T22:14:21.180Z,2.83
2023-03-01T22:16:48.721Z,2.81
2023-03-01T22:19:16.486Z,2.75
2023-03-01T22:21:45.631Z,2.88
2023-03-01T22:24:13.076Z,2.77
2023-03-01T22:26:42.584Z,2.76
2023-03-01T22:29:15.638Z,2.63
2023-03-01T22:31:43.146Z,2.64
2023-03-01T22:34:10.419Z,2.66
2023-03-01T22:36:37.361Z,2.57
2023-03-01T22:39:04.025Z,2.59
2023-03-01T22:41:36.833Z,2.63
2023-03-01T22:44:03.892Z,2.47
2023-03-01T22:46:31.138Z,2.38
2023-03-01T22:48:58.090Z,2.45
2023-03-01T22:51:35.001Z,2.47
2023-03-01T22:54:01.883Z,2.39
2023-03-01T22:56:32.582Z,2.32
2023-03-01T22:59:04.628Z,2.26
2023-03-01T23:01:31.706Z,2.33
2023-03-01T23:03:58.320Z,2.35
2023-03-01T23:06:25.338Z,2.21
2023-03-01T23:08:54.585Z,2.23
2023-03-01T23:11:23.573Z,2.31
2023-03-01T23:13:51.295Z,2.09
2023-03-01T23:16:18.775Z,2.08
2023-03-01T23:18:48.109Z,2.07
2023-03-01T23:21:18.261Z,2.22
2023-03-01T23:23:46.211Z,2.17
2023-03-01T23:26:13.997Z,2.04
2023-03-01T23:28:41.178Z,1.89
2023-03-01T23:31:11.633Z,1.76
2023-03-01T23:33:38.265Z,1.79
2023-03-01T23:36:14.760Z,1.62
2023-03-01T23:38:41.810Z,1.80
2023-03-01T23:41:13.531Z,1.79
2023-03-01T23:43:40.336Z,1.73
2023-03-01T23:46:07.104Z,1.74
2023-03-01T23:48:33.750Z,1.71
2023-03-01T23:51:06.985Z,1.66
2023-03-01T23:53:36.752Z,1.77
2023-03-01T23:56:03.979Z,1.70
2023-03-01T23:58:30.640Z,1.57
